createdAt,value
2019-04-22T00:02:13.517Z,95278.75
2019-04-22T00:05:13.121Z,95281.48
2019-04-22T00:08:19.719Z,95278.84
2019-04-22T00:11:12.873Z,95278.31
2019-04-22T00:13:57.065Z,95276.34
2019-04-22T00:19:45.585Z,95267.51
2019-04-22T00:22:27.764Z,95263.91
2019-04-22T00:25:22.494Z,95259.06
2019-04-22T00:28:08.450Z,95259.39
2019-04-22T00:31:13.126Z,95254.12
2019-04-22T00:34:02.291Z,95249.95
2019-04-22T00:36:48.269Z,95251.30
2019-04-22T00:39:44.701Z,95246.23
2019-04-22T00:42:28.866Z,95243.80
2019-04-22T00:45:19.112Z,95241.74
2019-04-22T00:48:17.727Z,95242.33
2019-04-22T00:53:48.834Z,95239.19
2019-04-22T00:56:35.870Z,95239.27
2019-04-22T00:59:29.812Z,95236.48
2019-04-22T01:02:20.362Z,95234.13
2019-04-22T01:05:19.753Z,95233.41
2019-04-22T01:08:09.772Z,95227.61
2019-04-22T01:10:57.026Z,95223.84
2019-04-22T01:13:38.721Z,95228.20
2019-04-22T01:19:26.007Z,95222.22
2019-04-22T01:22:17.749Z,95225.02
2019-04-22T01:25:02.432Z,95212.47
2019-04-22T01:27:50.265Z,95217.14
2019-04-22T01:30:35.019Z,95215.22
2019-04-22T01:33:26.001Z,95214.60
2019-04-22T01:36:28.817Z,95203.77
2019-04-22T01:39:25.081Z,95199.99
2019-04-22T01:42:14.136Z,95201.37
2019-04-22T01:45:12.325Z,95199.70
2019-04-22T01:47:55.151Z,95186.91
2019-04-22T01:50:48.542Z,95187.81
2019-04-22T01:53:33.424Z,95181.83
2019-04-22T01:56:27.579Z,95181.24
2019-04-22T01:59:08.587Z,95178.52
2019-04-22T02:02:02.611Z,95171.34
2019-04-22T02:05:01.244Z,95169.92
2019-04-22T02:07:50.187Z,95167.31
2019-04-22T02:10:44.162Z,95168.03
2019-04-22T02:13:30.334Z,95168.20
2019-04-22T02:16:23.098Z,95166.09
2019-04-22T02:19:13.131Z,95161.31
2019-04-22T02:21:56.178Z,95156.34
2019-04-22T02:27:46.031Z,95152.40
2019-04-22T02:30:45.078Z,95150.50
2019-04-22T02:39:07.925Z,95145.59
2019-04-22T02:42:00.736Z,95142.48
2019-04-22T02:44:42.762Z,95129.88
2019-04-22T02:47:49.978Z,95122.13
2019-04-22T02:50:28.827Z,95125.67
2019-04-22T02:53:29.777Z,95116.22
2019-04-22T03:04:37.472Z,95108.81
2019-04-22T03:07:55.828Z,95107.44
2019-04-22T03:10:29.524Z,95106.20
2019-04-22T03:13:21.293Z,95097.52
2019-04-22T03:16:08.053Z,95100.42
2019-04-22T03:21:38.831Z,95101.09
2019-04-22T03:27:23.375Z,95094.21
2019-04-22T03:36:06.411Z,95087.06
2019-04-22T03:39:15.552Z,95089.97
2019-04-22T03:41:50.084Z,95090.17
2019-04-22T03:44:31.233Z,95085.19
2019-04-22T03:47:31.488Z,95083.05
2019-04-22T03:55:46.756Z,95076.70
2019-04-22T03:58:45.482Z,95081.91
2019-04-22T04:01:37.327Z,95081.06
2019-04-22T04:07:22.417Z,95072.03
2019-04-22T04:15:46.251Z,95069.55
2019-04-22T04:18:39.650Z,95069.69
2019-04-22T04:24:32.692Z,95063.67
2019-04-22T04:27:35.005Z,95062.37
2019-04-22T04:30:14.481Z,95058.16
2019-04-22T04:35:43.414Z,95059.64
2019-04-22T04:38:20.405Z,95064.48
2019-04-22T04:41:19.529Z,95065.22
2019-04-22T04:44:22.763Z,95065.55
2019-04-22T04:47:07.585Z,95063.75
2019-04-22T04:49:52.725Z,95064.12
2019-04-22T04:53:02.326Z,95069.46
2019-04-22T04:55:28.744Z,95062.52
2019-04-22T04:58:27.365Z,95064.52
2019-04-22T05:01:20.929Z,95067.33
2019-04-22T05:04:16.885Z,95063.55
2019-04-22T05:06:53.704Z,95058.13
2019-04-22T05:09:38.554Z,95062.41
2019-04-22T05:15:18.584Z,95060.99
2019-04-22T05:18:14.721Z,95065.42
2019-04-22T05:23:50.562Z,95067.47
2019-04-22T05:26:39.691Z,95065.95
2019-04-22T05:29:34.891Z,95052.69
2019-04-22T05:32:33.853Z,95054.53
2019-04-22T05:35:06.842Z,95049.49
2019-04-22T05:37:56.609Z,95045.75
2019-04-22T05:40:40.780Z,95043.55
2019-04-22T05:46:28.298Z,95038.36
2019-04-22T05:49:22.521Z,95042.48
2019-04-22T05:52:10.850Z,95040.94
2019-04-22T05:55:01.986Z,95034.18
2019-04-22T05:57:51.255Z,95029.80
2019-04-22T06:01:11.443Z,95024.13
2019-04-22T06:03:35.219Z,95031.91
2019-04-22T06:06:22.584Z,95020.41
2019-04-22T06:09:18.833Z,95023.05
2019-04-22T06:12:03.264Z,95026.06
2019-04-22T06:15:01.485Z,95029.40
2019-04-22T06:17:58.950Z,95019.69
2019-04-22T06:20:49.763Z,95015.72
2019-04-22T06:26:30.861Z,95014.09
2019-04-22T06:29:16.396Z,95015.66
2019-04-22T06:35:07.577Z,95010.27
2019-04-22T06:37:59.527Z,95008.17
2019-04-22T06:43:29.644Z,95004.95
2019-04-22T06:46:18.723Z,95005.11
2019-04-22T06:49:11.118Z,94998.63
2019-04-22T06:52:06.020Z,95004.22
2019-04-22T06:54:50.393Z,94999.72
2019-04-22T06:57:36.377Z,94997.84
2019-04-22T07:06:07.373Z,94992.57
2019-04-22T07:09:20.719Z,94987.03
2019-04-22T07:11:51.548Z,94976.93
2019-04-22T07:14:35.309Z,94973.08
2019-04-22T07:17:33.857Z,94966.94
2019-04-22T07:20:17.356Z,94953.75
2019-04-22T07:23:19.504Z,94955.46
2019-04-22T07:26:00.242Z,94954.13
2019-04-22T07:28:49.017Z,94950.58
2019-04-22T07:31:45.393Z,94949.63
2019-04-22T07:34:50.435Z,94947.45
2019-04-22T07:37:29.593Z,94944.34
2019-04-22T07:40:14.062Z,94939.25
2019-04-22T07:43:05.460Z,94934.06
2019-04-22T07:45:51.912Z,94933.59
2019-04-22T07:51:32.965Z,94935.61
2019-04-22T07:54:24.656Z,94932.59
2019-04-22T08:00:04.078Z,94931.43
2019-04-22T08:03:06.603Z,94935.17
2019-04-22T08:05:51.880Z,94927.16
2019-04-22T08:08:29.037Z,94927.41
2019-04-22T08:11:42.326Z,94923.70
2019-04-22T08:14:18.910Z,94914.45
2019-04-22T08:17:19.282Z,94905.58
2019-04-22T08:19:57.477Z,94904.69
2019-04-22T08:22:42.652Z,94898.32
2019-04-22T08:25:33.430Z,94893.84
2019-04-22T08:31:14.898Z,94877.55
2019-04-22T08:34:12.093Z,94877.62
2019-04-22T08:37:24.039Z,94873.98
2019-04-22T08:40:07.609Z,94873.03
2019-04-22T08:42:50.222Z,94869.50
2019-04-22T08:45:44.307Z,94872.55
2019-04-22T08:48:15.058Z,94871.93
2019-04-22T08:51:09.462Z,94864.91
2019-04-22T08:53:59.801Z,94871.39
2019-04-22T08:57:06.387Z,94862.52
2019-04-22T08:59:37.223Z,94862.52
2019-04-22T09:05:33.548Z,94850.33
2019-04-22T09:10:59.395Z,94849.12
2019-04-22T09:13:50.640Z,94849.12
2019-04-22T09:16:45.928Z,94845.92
2019-04-22T09:19:28.511Z,94847.02
2019-04-22T09:22:22.101Z,94850.96
2019-04-22T09:25:27.471Z,94846.35
2019-04-22T09:27:59.326Z,94839.70
2019-04-22T09:30:58.034Z,94833.55
2019-04-22T09:33:38.176Z,94827.65
2019-04-22T09:36:33.814Z,94829.04
2019-04-22T09:39:30.243Z,94814.33
2019-04-22T09:42:14.579Z,94814.09
2019-04-22T09:45:05.696Z,94806.58
2019-04-22T09:53:41.723Z,94799.83
2019-04-22T09:59:16.288Z,94778.20
2019-04-22T10:02:21.963Z,94781.23
2019-04-22T10:05:03.435Z,94774.90
2019-04-22T10:07:44.875Z,94779.60
2019-04-22T10:10:46.561Z,94772.23
2019-04-22T10:13:36.103Z,94766.22
2019-04-22T10:16:27.674Z,94760.79
2019-04-22T10:19:12.351Z,94762.80
2019-04-22T10:22:07.320Z,94759.16
2019-04-22T10:24:45.036Z,94749.83
2019-04-22T10:27:39.809Z,94744.88
2019-04-22T10:30:38.353Z,94743.61
2019-04-22T10:33:14.929Z,94735.28
2019-04-22T10:35:45.703Z,94737.31
2019-04-22T10:38:34.622Z,94725.88
2019-04-22T10:41:23.589Z,94723.53
2019-04-22T10:44:13.062Z,94726.54
2019-04-22T10:47:04.150Z,94721.94
2019-04-22T10:49:54.137Z,94716.81
2019-04-22T10:52:45.647Z,94708.41
2019-04-22T10:55:35.097Z,94697.54
2019-04-22T10:58:24.847Z,94693.34
2019-04-22T11:01:13.744Z,94682.17
2019-04-22T11:04:03.430Z,94682.78
2019-04-22T11:06:57.631Z,94675.39
2019-04-22T11:09:51.755Z,94676.45
2019-04-22T11:12:35.531Z,94670.89
2019-04-22T11:15:24.428Z,94662.82
2019-04-22T11:18:13.548Z,94658.97
2019-04-22T11:21:02.155Z,94649.92
2019-04-22T11:23:52.384Z,94646.69
2019-04-22T11:26:43.143Z,94645.84
2019-04-22T11:29:32.532Z,94639.03
2019-04-22T11:32:22.363Z,94636.43
2019-04-22T11:35:11.958Z,94634.71
2019-04-22T11:38:01.154Z,94625.19
2019-04-22T11:40:52.502Z,94622.39
2019-04-22T11:43:41.157Z,94621.47
2019-04-22T11:46:31.520Z,94619.03
2019-04-22T11:49:21.867Z,94611.45
2019-04-22T11:52:13.248Z,94615.39
2019-04-22T11:55:01.120Z,94618.41
2019-04-22T11:57:51.940Z,94601.83
2019-04-22T12:00:43.145Z,94603.73
2019-04-22T12:03:31.706Z,94600.92
2019-04-22T12:06:21.972Z,94598.56
2019-04-22T12:09:12.636Z,94600.56
2019-04-22T12:12:01.237Z,94601.33
2019-04-22T12:14:50.243Z,94596.05
2019-04-22T12:17:40.489Z,94589.06
2019-04-22T12:20:29.859Z,94584.09
2019-04-22T12:23:19.006Z,94582.89
2019-04-22T12:26:12.841Z,94576.28
2019-04-22T12:28:59.329Z,94583.22
2019-04-22T12:31:49.433Z,94569.33
2019-04-22T12:34:39.664Z,94573.55
2019-04-22T12:37:35.608Z,94565.55
2019-04-22T12:40:31.362Z,94544.22
2019-04-22T12:43:12.272Z,94552.33
2019-04-22T12:46:00.497Z,94544.30
2019-04-22T12:48:49.910Z,94538.55
2019-04-22T12:51:41.064Z,94536.87
2019-04-22T12:54:31.015Z,94528.20
2019-04-22T12:57:20.688Z,94517.92
2019-04-22T13:00:13.487Z,94522.56
2019-04-22T13:03:03.167Z,94509.97
2019-04-22T13:05:52.070Z,94499.36
2019-04-22T13:08:41.421Z,94495.42
2019-04-22T13:11:34.071Z,94491.72
2019-04-22T13:14:21.106Z,94486.83
2019-04-22T13:17:10.335Z,94479.06
2019-04-22T13:20:00.442Z,94481.89
2019-04-22T13:22:50.585Z,94476.52
2019-04-22T13:25:40.835Z,94463.06
2019-04-22T13:28:31.475Z,94466.84
2019-04-22T13:31:20.988Z,94472.61
2019-04-22T13:34:23.939Z,94472.15
2019-04-22T13:37:03.092Z,94459.95
2019-04-22T13:39:52.879Z,94462.36
2019-04-22T13:42:42.784Z,94460.44
2019-04-22T13:45:31.895Z,94454.83
2019-04-22T13:48:38.184Z,94449.06
2019-04-22T13:57:09.089Z,94440.77
2019-04-22T13:59:46.949Z,94445.08
2019-04-22T14:03:02.434Z,94446.77
2019-04-22T14:05:53.011Z,94444.25
2019-04-22T14:08:43.101Z,94445.13
2019-04-22T14:11:36.698Z,94440.19
2019-04-22T14:14:22.130Z,94427.50
2019-04-22T14:17:11.550Z,94435.90
2019-04-22T14:20:00.579Z,94432.80
2019-04-22T14:22:50.428Z,94425.19
2019-04-22T14:25:40.832Z,94422.19
2019-04-22T14:28:30.861Z,94420.03
2019-04-22T14:31:20.384Z,94411.33
2019-04-22T14:34:10.201Z,94408.30
2019-04-22T14:36:59.664Z,94403.61
2019-04-22T14:39:48.450Z,94404.24
2019-04-22T14:42:56.027Z,94401.84
2019-04-22T14:46:04.308Z,94397.05
2019-04-22T14:48:46.006Z,94400.77
2019-04-22T14:51:27.795Z,94392.77
2019-04-22T14:54:13.711Z,94389.19
2019-04-22T14:56:48.532Z,94385.98
2019-04-22T14:59:37.830Z,94378.80
2019-04-22T15:02:27.904Z,94380.28
2019-04-22T15:05:18.484Z,94369.90
2019-04-22T15:08:07.260Z,94375.72
2019-04-22T15:10:55.833Z,94376.75
2019-04-22T15:13:45.205Z,94377.36
2019-04-22T15:17:00.584Z,94360.79
2019-04-22T15:20:01.492Z,94359.39
2019-04-22T15:22:52.709Z,94355.17
2019-04-22T15:25:41.136Z,94350.79
2019-04-22T15:28:31.339Z,94348.72
2019-04-22T15:31:21.563Z,94351.47
2019-04-22T15:34:10.323Z,94346.36
2019-04-22T15:37:00.080Z,94340.24
2019-04-22T15:39:49.872Z,94341.48
2019-04-22T15:42:42.848Z,94337.95
2019-04-22T15:45:30.457Z,94333.82
2019-04-22T15:48:21.083Z,94330.42
2019-04-22T15:51:11.060Z,94335.70
2019-04-22T15:54:01.354Z,94326.59
2019-04-22T15:56:50.819Z,94326.17
2019-04-22T15:59:59.306Z,94324.08
2019-04-22T16:02:31.636Z,94317.00
2019-04-22T16:05:20.808Z,94322.21
2019-04-22T16:08:10.878Z,94321.25
2019-04-22T16:11:00.001Z,94318.97
2019-04-22T16:13:50.557Z,94321.39
2019-04-22T16:16:38.951Z,94325.66
2019-04-22T16:19:28.275Z,94317.70
2019-04-22T16:22:20.629Z,94316.59
2019-04-22T16:25:29.024Z,94316.77
2019-04-22T16:28:17.547Z,94319.81
2019-04-22T16:31:07.223Z,94315.92
2019-04-22T16:33:56.405Z,94321.47
2019-04-22T16:36:46.951Z,94321.31
2019-04-22T16:39:36.712Z,94307.72
2019-04-22T16:42:35.947Z,94314.61
2019-04-22T16:45:17.688Z,94309.22
2019-04-22T16:48:07.504Z,94314.72
2019-04-22T16:50:56.566Z,94316.78
2019-04-22T16:53:47.489Z,94312.36
2019-04-22T16:56:37.203Z,94317.45
2019-04-22T16:59:26.735Z,94314.23
2019-04-22T17:02:35.245Z,94314.53
2019-04-22T17:05:56.112Z,94312.20
2019-04-22T17:08:44.898Z,94319.75
2019-04-22T17:11:34.003Z,94318.84
2019-04-22T17:14:27.254Z,94322.36
2019-04-22T17:17:14.885Z,94316.78
2019-04-22T17:20:05.112Z,94313.74
2019-04-22T17:22:55.623Z,94319.99
2019-04-22T17:25:44.653Z,94318.76
2019-04-22T17:28:35.500Z,94315.06
2019-04-22T17:31:24.874Z,94314.59
2019-04-22T17:34:15.670Z,94315.84
2019-04-22T17:37:15.954Z,94323.42
2019-04-22T17:40:17.499Z,94309.36
2019-04-22T17:43:14.120Z,94311.45
2019-04-22T17:46:13.153Z,94318.69
2019-04-22T17:49:06.034Z,94310.65
2019-04-22T17:52:18.900Z,94313.90
2019-04-22T17:55:03.052Z,94308.14
2019-04-22T17:57:55.306Z,94308.03
2019-04-22T18:00:38.215Z,94311.84
2019-04-22T18:03:25.822Z,94304.44
2019-04-22T18:06:14.385Z,94309.67
2019-04-22T18:09:19.501Z,94297.52
2019-04-22T18:12:12.329Z,94306.29
2019-04-22T18:15:06.089Z,94302.97
2019-04-22T18:17:54.289Z,94298.28
2019-04-22T18:20:37.737Z,94292.59
2019-04-22T18:23:18.108Z,94291.13
2019-04-22T18:26:20.410Z,94282.89
2019-04-22T18:29:11.555Z,94283.98
2019-04-22T18:31:54.463Z,94295.34
2019-04-22T18:34:44.388Z,94290.19
2019-04-22T18:37:43.691Z,94299.94
2019-04-22T18:40:30.910Z,94302.36
2019-04-22T18:43:27.798Z,94302.06
2019-04-22T18:46:14.631Z,94306.50
2019-04-22T18:49:06.892Z,94301.80
2019-04-22T18:52:15.796Z,94300.14
2019-04-22T18:55:26.758Z,94299.87
2019-04-22T18:58:16.300Z,94293.52
2019-04-22T19:00:53.295Z,94294.05
2019-04-22T19:03:49.766Z,94294.42
2019-04-22T19:06:56.498Z,94295.66
2019-04-22T19:10:01.614Z,94300.66
2019-04-22T19:12:46.439Z,94298.76
2019-04-22T19:15:33.071Z,94297.34
2019-04-22T19:18:25.223Z,94299.55
2019-04-22T19:21:13.228Z,94299.39
2019-04-22T19:23:58.461Z,94301.69
2019-04-22T19:29:39.594Z,94306.28
2019-04-22T19:32:37.148Z,94309.89
2019-04-22T19:35:17.429Z,94305.20
2019-04-22T19:37:57.325Z,94305.69
2019-04-22T19:41:08.056Z,94294.98
2019-04-22T19:43:50.351Z,94295.09
2019-04-22T19:46:42.456Z,94292.70
2019-04-22T19:49:39.520Z,94285.13
2019-04-22T19:52:26.106Z,94284.20
2019-04-22T19:55:14.145Z,94287.26
2019-04-22T19:58:04.144Z,94287.41
2019-04-22T20:01:22.193Z,94281.91
2019-04-22T20:07:12.805Z,94271.48
2019-04-22T20:10:05.305Z,94268.58
2019-04-22T20:12:54.589Z,94260.89
2019-04-22T20:15:37.089Z,94262.47
2019-04-22T20:18:48.333Z,94258.89
2019-04-22T20:21:28.592Z,94260.33
2019-04-22T20:24:06.755Z,94256.25
2019-04-22T20:27:09.336Z,94247.53
2019-04-22T20:29:58.173Z,94240.45
2019-04-22T20:32:47.148Z,94244.91
2019-04-22T20:35:40.126Z,94243.23
2019-04-22T20:38:28.154Z,94241.30
2019-04-22T20:41:17.444Z,94237.83
2019-04-22T20:44:16.344Z,94241.20
2019-04-22T20:47:00.274Z,94241.09
2019-04-22T20:49:55.397Z,94240.11
2019-04-22T20:52:50.808Z,94235.80
2019-04-22T20:55:26.808Z,94229.92
2019-04-22T20:58:22.429Z,94228.83
2019-04-22T21:01:03.828Z,94231.83
2019-04-22T21:03:49.565Z,94231.34
2019-04-22T21:06:51.623Z,94222.72
2019-04-22T21:09:43.057Z,94221.64
2019-04-22T21:12:27.594Z,94219.36
2019-04-22T21:15:31.442Z,94214.44
2019-04-22T21:18:15.637Z,94216.47
2019-04-22T21:21:07.306Z,94208.56
2019-04-22T21:23:48.564Z,94204.45
2019-04-22T21:26:45.331Z,94206.63
2019-04-22T21:29:33.595Z,94200.27
2019-04-22T21:32:31.370Z,94200.14
2019-04-22T21:35:31.907Z,94195.56
2019-04-22T21:38:15.242Z,94186.80
2019-04-22T21:40:59.951Z,94190.77
2019-04-22T21:43:53.023Z,94189.07
2019-04-22T21:46:42.308Z,94193.16
2019-04-22T21:49:36.115Z,94184.73
2019-04-22T21:52:22.905Z,94182.69
2019-04-22T21:55:16.151Z,94180.52
2019-04-22T21:58:12.265Z,94177.39
2019-04-22T22:01:29.539Z,94175.22
2019-04-22T22:04:04.823Z,94184.11
2019-04-22T22:06:45.094Z,94177.27
2019-04-22T22:09:48.972Z,94171.73
2019-04-22T22:12:42.532Z,94164.65
2019-04-22T22:15:28.708Z,94167.28
2019-04-22T22:18:16.557Z,94156.88
2019-04-22T22:21:28.321Z,94157.93
2019-04-22T22:24:05.632Z,94160.70
2019-04-22T22:26:54.246Z,94153.48
2019-04-22T22:29:49.928Z,94148.11
2019-04-22T22:32:35.422Z,94143.30
2019-04-22T22:35:20.679Z,94134.91
2019-04-22T22:38:13.508Z,94138.08
2019-04-22T22:40:43.823Z,94135.31
2019-04-22T22:43:37.080Z,94134.58
2019-04-22T22:46:31.893Z,94135.54
2019-04-22T22:49:33.005Z,94129.22
2019-04-22T22:52:51.764Z,94129.31
2019-04-22T22:55:10.810Z,94123.45
2019-04-22T22:58:08.232Z,94121.64
2019-04-22T23:00:50.675Z,94122.92
2019-04-22T23:03:51.725Z,94111.56
2019-04-22T23:06:38.638Z,94120.75
2019-04-22T23:09:29.317Z,94124.70
2019-04-22T23:12:25.168Z,94113.27
2019-04-22T23:15:06.189Z,94111.22
2019-04-22T23:17:37.845Z,94103.77
2019-04-22T23:20:31.034Z,94100.15
2019-04-22T23:26:40.411Z,94094.06
2019-04-22T23:29:37.002Z,94087.70
2019-04-22T23:32:25.454Z,94084.44
2019-04-22T23:35:33.668Z,94073.27
2019-04-22T23:38:20.734Z,94078.80
2019-04-22T23:41:39.208Z,94077.72
2019-04-22T23:44:29.135Z,94071.19
2019-04-22T23:47:16.060Z,94060.42
2019-04-22T23:50:14.250Z,94059.34
2019-04-22T23:53:02.263Z,94052.48
2019-04-22T23:55:54.262Z,94051.98
2019-04-22T23:58:52.424Z,94048.12
